createdAt,value
2022-10-26T00:00:51.023Z,97102.56
2022-10-26T00:03:17.522Z,97100.66
2022-10-26T00:05:44.867Z,97101.31
2022-10-26T00:08:11.691Z,97102.88
2022-10-26T00:10:38.881Z,97093.38
2022-10-26T00:13:05.843Z,97097.63
2022-10-26T00:15:32.220Z,97096.75
2022-10-26T00:17:58.545Z,97095.25
2022-10-26T00:20:26.001Z,97100.66
2022-10-26T00:22:52.633Z,97104.22
2022-10-26T00:25:18.952Z,97101.75
2022-10-26T00:27:46.448Z,97103.31
2022-10-26T00:30:12.979Z,97104.72
2022-10-26T00:35:21.439Z,97098.69
2022-10-26T00:37:53.821Z,97103.84
2022-10-26T00:40:22.368Z,97101.06
2022-10-26T00:42:48.982Z,97106.22
2022-10-26T00:45:19.275Z,97104.72
2022-10-26T00:47:49.012Z,97107.66
2022-10-26T00:50:19.259Z,97104.28
2022-10-26T00:52:45.698Z,97104.81
2022-10-26T00:55:12.260Z,97104.38
2022-10-26T00:57:39.138Z,97100.78
2022-10-26T01:00:07.940Z,97106.22
2022-10-26T01:02:34.432Z,97102.81
2022-10-26T01:05:03.017Z,97100.41
2022-10-26T01:07:29.410Z,97095.41
2022-10-26T01:09:55.817Z,97095.84
2022-10-26T01:12:22.131Z,97093.47
2022-10-26T01:14:48.616Z,97086.44
2022-10-26T01:17:38.279Z,97095.53
2022-10-26T01:20:23.404Z,97091.59
2022-10-26T01:22:50.801Z,97093.00
2022-10-26T01:25:35.879Z,97090.91
2022-10-26T01:28:18.966Z,97088.75
2022-10-26T01:30:46.755Z,97083.13
2022-10-26T01:33:21.593Z,97081.03
2022-10-26T01:36:03.931Z,97084.25
2022-10-26T01:38:45.778Z,97076.81
2022-10-26T01:41:16.349Z,97077.47
2022-10-26T01:43:46.707Z,97071.16
2022-10-26T01:46:13.728Z,97069.84
2022-10-26T01:48:41.745Z,97070.38
2022-10-26T01:51:09.721Z,97064.22
2022-10-26T01:53:36.351Z,97061.03
2022-10-26T01:56:03.288Z,97068.03
2022-10-26T01:58:38.805Z,97055.81
2022-10-26T02:01:27.834Z,97050.78
2022-10-26T02:04:20.268Z,97051.84
2022-10-26T02:07:22.070Z,97048.47
2022-10-26T02:09:56.792Z,97043.63
2022-10-26T02:12:29.434Z,97045.25
2022-10-26T02:15:03.951Z,97041.81
2022-10-26T02:17:38.492Z,97043.06
2022-10-26T02:20:07.942Z,97036.44
2022-10-26T02:22:34.495Z,97040.91
2022-10-26T02:25:04.641Z,97041.09
2022-10-26T02:27:33.078Z,97045.03
2022-10-26T02:30:00.418Z,97043.47
2022-10-26T02:32:30.655Z,97044.97
2022-10-26T02:34:58.636Z,97045.84
2022-10-26T02:37:26.588Z,97051.69
2022-10-26T02:39:54.325Z,97044.31
2022-10-26T02:42:22.643Z,97048.78
2022-10-26T02:44:52.069Z,97047.44
2022-10-26T02:47:19.692Z,97051.69
2022-10-26T02:49:46.033Z,97047.66
2022-10-26T02:52:17.668Z,97047.81
2022-10-26T02:54:46.974Z,97044.31
2022-10-26T02:57:19.220Z,97039.28
2022-10-26T02:59:47.669Z,97039.59
2022-10-26T03:02:16.272Z,97045.63
2022-10-26T03:04:42.619Z,97047.16
2022-10-26T03:07:09.254Z,97053.53
2022-10-26T03:09:35.568Z,97060.81
2022-10-26T03:12:01.984Z,97057.22
2022-10-26T03:14:28.296Z,97046.28
2022-10-26T03:16:54.707Z,97049.22
2022-10-26T03:19:21.129Z,97049.22
2022-10-26T03:21:50.475Z,97038.00
2022-10-26T03:24:16.788Z,97042.09
2022-10-26T03:26:43.110Z,97038.81
2022-10-26T03:29:12.758Z,97039.28
2022-10-26T03:31:39.106Z,97039.19
2022-10-26T03:34:05.536Z,97042.31
2022-10-26T03:36:32.942Z,97039.84
2022-10-26T03:38:59.336Z,97041.63
2022-10-26T03:41:26.117Z,97037.84
2022-10-26T03:43:52.523Z,97034.97
2022-10-26T03:46:18.873Z,97044.78
2022-10-26T03:48:50.332Z,97052.63
2022-10-26T03:51:16.655Z,97057.81
2022-10-26T03:53:43.024Z,97057.50
2022-10-26T03:56:10.688Z,97060.63
2022-10-26T03:58:37.109Z,97068.66
2022-10-26T04:01:03.546Z,97067.38
2022-10-26T04:03:29.920Z,97054.78
2022-10-26T04:05:58.065Z,97059.44
2022-10-26T04:08:24.732Z,97057.97
2022-10-26T04:10:54.218Z,97069.72
2022-10-26T04:13:20.525Z,97057.75
2022-10-26T04:15:46.969Z,97069.06
2022-10-26T04:18:13.785Z,97069.94
2022-10-26T04:20:44.582Z,97064.50
2022-10-26T04:23:12.718Z,97061.63
2022-10-26T04:25:39.217Z,97067.53
2022-10-26T04:28:06.412Z,97067.69
2022-10-26T04:30:33.429Z,97070.63
2022-10-26T04:32:59.845Z,97064.91
2022-10-26T04:35:26.518Z,97071.13
2022-10-26T04:37:57.044Z,97065.31
2022-10-26T04:40:23.436Z,97066.72
2022-10-26T04:42:50.116Z,97064.34
2022-10-26T04:45:16.893Z,97068.59
2022-10-26T04:47:43.325Z,97058.66
2022-10-26T04:50:10.940Z,97057.78
2022-10-26T04:52:37.668Z,97059.41
2022-10-26T04:55:07.718Z,97060.50
2022-10-26T04:57:34.449Z,97058.69
2022-10-26T05:00:01.150Z,97059.78
2022-10-26T05:02:28.431Z,97064.25
2022-10-26T05:04:55.108Z,97059.13
2022-10-26T05:07:21.502Z,97060.41
2022-10-26T05:09:47.909Z,97061.75
2022-10-26T05:12:14.224Z,97064.91
2022-10-26T05:14:40.575Z,97073.91
2022-10-26T05:17:06.900Z,97072.56
2022-10-26T05:19:33.252Z,97069.97
2022-10-26T05:21:59.669Z,97078.50
2022-10-26T05:24:28.067Z,97085.69
2022-10-26T05:26:54.377Z,97078.03
2022-10-26T05:29:20.769Z,97094.22
2022-10-26T05:31:47.094Z,97089.81
2022-10-26T05:34:13.580Z,97093.75
2022-10-26T05:36:39.947Z,97100.47
2022-10-26T05:39:12.576Z,97102.13
2022-10-26T05:41:38.876Z,97102.13
2022-10-26T05:44:05.201Z,97107.38
2022-10-26T05:46:31.552Z,97109.88
2022-10-26T05:48:58.243Z,97107.00
2022-10-26T05:51:24.638Z,97096.91
2022-10-26T05:53:54.250Z,97097.41
2022-10-26T05:56:24.467Z,97102.56
2022-10-26T05:58:50.890Z,97100.56
2022-10-26T06:01:22.205Z,97097.59
2022-10-26T06:03:55.773Z,97103.91
2022-10-26T06:06:22.593Z,97105.38
2022-10-26T06:08:49.193Z,97106.84
2022-10-26T06:11:15.651Z,97107.50
2022-10-26T06:13:42.319Z,97110.13
2022-10-26T06:16:27.666Z,97111.47
2022-10-26T06:18:59.651Z,97110.16
2022-10-26T06:21:28.232Z,97116.06
2022-10-26T06:24:07.049Z,97126.75
2022-10-26T06:26:48.617Z,97125.59
2022-10-26T06:29:17.934Z,97136.94
2022-10-26T06:31:45.083Z,97131.19
2022-10-26T06:34:14.354Z,97127.19
2022-10-26T06:36:41.562Z,97121.31
2022-10-26T06:39:10.298Z,97124.63
2022-10-26T06:41:37.132Z,97133.13
2022-10-26T06:44:05.016Z,97130.25
2022-10-26T06:46:31.863Z,97129.91
2022-10-26T06:49:07.495Z,97128.47
2022-10-26T06:51:38.938Z,97128.97
2022-10-26T06:54:19.941Z,97139.16
2022-10-26T06:56:46.732Z,97136.03
2022-10-26T06:59:16.122Z,97122.13
2022-10-26T07:01:42.647Z,97110.97
2022-10-26T07:04:09.293Z,97115.78
2022-10-26T07:06:38.419Z,97117.56
2022-10-26T07:09:05.920Z,97117.28
2022-10-26T07:11:32.421Z,97116.50
2022-10-26T07:13:58.811Z,97126.47
2022-10-26T07:16:25.145Z,97127.81
2022-10-26T07:18:51.545Z,97129.09
2022-10-26T07:21:17.880Z,97140.63
2022-10-26T07:23:44.278Z,97143.94
2022-10-26T07:26:10.597Z,97142.28
2022-10-26T07:28:37.099Z,97142.63
2022-10-26T07:31:05.539Z,97143.13
2022-10-26T07:33:31.856Z,97146.56
2022-10-26T07:36:01.406Z,97144.63
2022-10-26T07:38:27.793Z,97134.94
2022-10-26T07:40:54.759Z,97139.63
2022-10-26T07:43:21.255Z,97140.66
2022-10-26T07:45:51.529Z,97147.53
2022-10-26T07:48:17.976Z,97138.84
2022-10-26T07:50:44.341Z,97139.28
2022-10-26T07:53:10.650Z,97135.78
2022-10-26T07:55:36.993Z,97118.94
2022-10-26T07:58:04.423Z,97131.72
2022-10-26T08:00:31.023Z,97139.09
2022-10-26T08:02:59.469Z,97130.31
2022-10-26T08:05:25.922Z,97140.03
2022-10-26T08:07:52.666Z,97130.56
2022-10-26T08:10:19.255Z,97135.44
2022-10-26T08:12:45.573Z,97134.16
2022-10-26T08:15:12.011Z,97147.69
2022-10-26T08:17:38.430Z,97141.25
2022-10-26T08:20:04.985Z,97149.88
2022-10-26T08:22:31.428Z,97147.63
2022-10-26T08:24:57.943Z,97159.53
2022-10-26T08:27:24.294Z,97145.91
2022-10-26T08:29:50.719Z,97151.34
2022-10-26T08:32:17.032Z,97162.25
2022-10-26T08:34:43.351Z,97162.88
2022-10-26T08:37:09.672Z,97156.63
2022-10-26T08:39:36.044Z,97153.63
2022-10-26T08:42:17.064Z,97144.41
2022-10-26T08:44:47.786Z,97142.78
2022-10-26T08:47:19.597Z,97150.28
2022-10-26T08:49:49.097Z,97161.91
2022-10-26T08:52:17.574Z,97159.16
2022-10-26T08:54:54.413Z,97165.00
2022-10-26T08:57:28.585Z,97161.19
2022-10-26T09:00:00.475Z,97159.16
2022-10-26T09:02:27.893Z,97164.34
2022-10-26T09:04:55.138Z,97167.81
2022-10-26T09:07:33.508Z,97164.63
2022-10-26T09:10:12.024Z,97166.38
2022-10-26T09:12:45.181Z,97165.81
2022-10-26T09:15:20.744Z,97169.00
2022-10-26T09:17:49.805Z,97172.19
2022-10-26T09:20:16.206Z,97169.56
2022-10-26T09:23:04.631Z,97167.34
2022-10-26T09:25:35.032Z,97165.69
2022-10-26T09:28:02.560Z,97161.22
2022-10-26T09:30:30.332Z,97168.06
2022-10-26T09:32:59.260Z,97164.47
2022-10-26T09:35:33.222Z,97164.50
2022-10-26T09:38:06.431Z,97165.69
2022-10-26T09:40:47.888Z,97157.13
2022-10-26T09:43:17.372Z,97162.28
2022-10-26T09:45:51.335Z,97158.66
2022-10-26T09:48:22.523Z,97165.97
2022-10-26T09:50:49.734Z,97164.13
2022-10-26T09:53:16.225Z,97170.63
2022-10-26T09:55:44.560Z,97174.97
2022-10-26T09:58:31.700Z,97177.28
2022-10-26T10:00:58.026Z,97178.75
2022-10-26T10:03:28.306Z,97191.84
2022-10-26T10:05:56.409Z,97178.63
2022-10-26T10:08:23.917Z,97182.47
2022-10-26T10:11:16.706Z,97173.31
2022-10-26T10:13:44.779Z,97181.22
2022-10-26T10:16:12.815Z,97181.84
2022-10-26T10:18:41.710Z,97190.41
2022-10-26T10:21:09.007Z,97196.13
2022-10-26T10:23:37.249Z,97191.22
2022-10-26T10:26:10.912Z,97193.44
2022-10-26T10:28:38.224Z,97194.19
2022-10-26T10:31:07.100Z,97202.84
2022-10-26T10:33:38.581Z,97192.69
2022-10-26T10:36:07.711Z,97194.56
2022-10-26T10:38:38.032Z,97194.53
2022-10-26T10:41:05.037Z,97194.41
2022-10-26T10:43:31.589Z,97196.25
2022-10-26T10:45:59.726Z,97190.19
2022-10-26T10:48:28.011Z,97188.06
2022-10-26T10:51:00.278Z,97190.84
2022-10-26T10:53:34.746Z,97190.84
2022-10-26T10:56:19.715Z,97188.63
2022-10-26T10:58:48.790Z,97181.75
2022-10-26T11:01:18.358Z,97194.44
2022-10-26T11:04:03.672Z,97193.31
2022-10-26T11:06:32.460Z,97188.41
2022-10-26T11:09:07.969Z,97185.50
2022-10-26T11:11:44.657Z,97190.25
2022-10-26T11:14:16.957Z,97193.03
2022-10-26T11:16:46.352Z,97188.88
2022-10-26T11:19:32.980Z,97191.19
2022-10-26T11:21:59.320Z,97191.41
2022-10-26T11:24:36.600Z,97191.97
2022-10-26T11:27:14.952Z,97187.53
2022-10-26T11:29:53.494Z,97192.78
2022-10-26T11:32:27.021Z,97189.69
2022-10-26T11:35:12.599Z,97187.91
2022-10-26T11:37:48.152Z,97187.53
2022-10-26T11:40:14.487Z,97190.63
2022-10-26T11:42:44.477Z,97194.25
2022-10-26T11:45:17.829Z,97191.94
2022-10-26T11:47:49.015Z,97195.41
2022-10-26T11:50:18.948Z,97197.25
2022-10-26T11:52:49.294Z,97198.53
2022-10-26T11:55:17.103Z,97199.03
2022-10-26T11:57:46.560Z,97204.34
2022-10-26T12:00:12.870Z,97210.66
2022-10-26T12:05:15.266Z,97218.84
2022-10-26T12:07:48.500Z,97223.97
2022-10-26T12:10:35.285Z,97226.78
2022-10-26T12:13:10.668Z,97232.31
2022-10-26T12:19:00.798Z,97240.69
2022-10-26T12:21:28.885Z,97239.06
2022-10-26T12:23:59.411Z,97240.28
2022-10-26T12:26:25.900Z,97246.81
2022-10-26T12:29:01.290Z,97243.97
2022-10-26T12:31:36.849Z,97240.84
2022-10-26T12:34:11.465Z,97251.53
2022-10-26T12:36:46.736Z,97245.78
2022-10-26T12:39:25.176Z,97252.13
2022-10-26T12:41:59.387Z,97256.19
2022-10-26T12:44:46.021Z,97254.59
2022-10-26T12:47:27.793Z,97252.75
2022-10-26T12:50:20.293Z,97254.19
2022-10-26T12:52:55.893Z,97256.41
2022-10-26T12:55:30.753Z,97252.53
2022-10-26T12:57:57.027Z,97255.81
2022-10-26T13:00:25.157Z,97259.06
2022-10-26T13:03:00.403Z,97260.28
2022-10-26T13:05:44.842Z,97264.56
2022-10-26T13:08:12.492Z,97263.38
2022-10-26T13:10:43.253Z,97263.16
2022-10-26T13:13:22.259Z,97264.81
2022-10-26T13:15:56.099Z,97268.06
2022-10-26T13:18:23.009Z,97266.44
2022-10-26T13:21:09.194Z,97263.56
2022-10-26T13:23:37.777Z,97265.19
2022-10-26T13:26:07.012Z,97270.13
2022-10-26T13:28:42.689Z,97264.38
2022-10-26T13:31:27.899Z,97269.69
2022-10-26T13:33:57.745Z,97273.56
2022-10-26T13:36:27.070Z,97270.50
2022-10-26T13:38:53.997Z,97272.53
2022-10-26T13:41:28.341Z,97278.06
2022-10-26T13:43:54.777Z,97280.28
2022-10-26T13:46:25.160Z,97282.56
2022-10-26T13:48:57.550Z,97281.53
2022-10-26T13:51:25.543Z,97280.69
2022-10-26T13:53:58.932Z,97277.03
2022-10-26T13:56:29.665Z,97279.50
2022-10-26T13:58:55.963Z,97273.78
2022-10-26T14:01:25.008Z,97274.59
2022-10-26T14:03:51.622Z,97286.84
2022-10-26T14:06:21.583Z,97290.09
2022-10-26T14:08:49.484Z,97290.09
2022-10-26T14:11:18.017Z,97287.66
2022-10-26T14:13:45.843Z,97287.66
2022-10-26T14:16:17.411Z,97286.84
2022-10-26T14:18:45.001Z,97288.88
2022-10-26T14:21:16.180Z,97294.59
2022-10-26T14:23:56.182Z,97301.97
2022-10-26T14:26:22.526Z,97294.59
2022-10-26T14:28:51.028Z,97303.31
2022-10-26T14:31:24.813Z,97305.38
2022-10-26T14:33:52.071Z,97305.34
2022-10-26T14:36:20.043Z,97306.03
2022-10-26T14:38:47.956Z,97310.44
2022-10-26T14:41:16.899Z,97308.03
2022-10-26T14:43:44.143Z,97294.97
2022-10-26T14:46:15.560Z,97302.50
2022-10-26T14:48:49.888Z,97304.31
2022-10-26T14:51:17.329Z,97313.84
2022-10-26T14:53:53.827Z,97300.22
2022-10-26T14:56:28.884Z,97310.44
2022-10-26T14:58:57.411Z,97309.63
2022-10-26T15:01:23.975Z,97308.84
2022-10-26T15:03:58.207Z,97312.91
2022-10-26T15:06:27.673Z,97316.44
2022-10-26T15:08:57.496Z,97318.25
2022-10-26T15:11:26.968Z,97327.84
2022-10-26T15:13:55.370Z,97334.97
2022-10-26T15:16:23.228Z,97328.88
2022-10-26T15:18:54.607Z,97328.81
2022-10-26T15:21:24.962Z,97336.00
2022-10-26T15:23:52.251Z,97342.25
2022-10-26T15:26:18.992Z,97347.16
2022-10-26T15:28:47.097Z,97340.22
2022-10-26T15:31:14.563Z,97343.91
2022-10-26T15:33:41.817Z,97347.66
2022-10-26T15:36:08.123Z,97350.69
2022-10-26T15:38:35.015Z,97357.59
2022-10-26T15:41:01.385Z,97355.97
2022-10-26T15:43:27.712Z,97360.25
2022-10-26T15:45:55.103Z,97356.97
2022-10-26T15:48:27.121Z,97366.50
2022-10-26T15:50:53.448Z,97371.34
2022-10-26T15:53:24.167Z,97369.47
2022-10-26T15:55:52.427Z,97368.69
2022-10-26T15:58:19.953Z,97379.50
2022-10-26T16:00:46.380Z,97379.75
2022-10-26T16:03:23.181Z,97383.56
2022-10-26T16:05:53.220Z,97380.28
2022-10-26T16:08:19.687Z,97385.81
2022-10-26T16:10:46.501Z,97390.88
2022-10-26T16:13:13.602Z,97386.19
2022-10-26T16:15:40.219Z,97397.06
2022-10-26T16:18:06.599Z,97402.97
2022-10-26T16:20:32.997Z,97405.38
2022-10-26T16:23:01.648Z,97408.38
2022-10-26T16:25:27.996Z,97406.56
2022-10-26T16:27:55.045Z,97406.19
2022-10-26T16:30:22.371Z,97398.75
2022-10-26T16:32:50.474Z,97405.38
2022-10-26T16:35:17.062Z,97407.25
2022-10-26T16:37:43.674Z,97417.84
2022-10-26T16:40:10.234Z,97423.38
2022-10-26T16:42:36.631Z,97420.97
2022-10-26T16:45:03.727Z,97430.72
2022-10-26T16:47:35.358Z,97426.97
2022-10-26T16:50:02.057Z,97436.81
2022-10-26T16:52:28.388Z,97430.00
2022-10-26T16:54:54.951Z,97431.47
2022-10-26T16:57:21.254Z,97432.72
2022-10-26T16:59:47.577Z,97428.53
2022-10-26T17:02:14.752Z,97436.78
2022-10-26T17:04:41.169Z,97435.75
2022-10-26T17:07:07.495Z,97440.22
2022-10-26T17:09:34.089Z,97440.16
2022-10-26T17:12:02.134Z,97451.25
2022-10-26T17:14:28.788Z,97449.22
2022-10-26T17:16:55.150Z,97454.91
2022-10-26T17:19:21.473Z,97454.25
2022-10-26T17:21:47.788Z,97459.91
2022-10-26T17:24:14.265Z,97458.66
2022-10-26T17:26:40.712Z,97460.13
2022-10-26T17:29:07.131Z,97461.31
2022-10-26T17:31:33.559Z,97468.34
2022-10-26T17:34:00.111Z,97471.34
2022-10-26T17:36:26.528Z,97458.75
2022-10-26T17:38:54.103Z,97470.06
2022-10-26T17:41:22.353Z,97474.72
2022-10-26T17:43:49.280Z,97489.41
2022-10-26T17:46:17.073Z,97489.41
2022-10-26T17:48:43.675Z,97497.44
2022-10-26T17:51:11.884Z,97492.88
2022-10-26T17:53:38.207Z,97495.53
2022-10-26T17:56:08.504Z,97503.81
2022-10-26T17:58:35.291Z,97506.66
2022-10-26T18:01:05.984Z,97506.66
2022-10-26T18:03:32.463Z,97503.47
2022-10-26T18:06:02.378Z,97507.75
2022-10-26T18:08:31.963Z,97509.47
2022-10-26T18:10:59.100Z,97511.75
2022-10-26T18:13:29.153Z,97521.72
2022-10-26T18:15:55.481Z,97522.69
2022-10-26T18:18:21.809Z,97519.69
2022-10-26T18:20:48.119Z,97519.78
2022-10-26T18:23:14.449Z,97517.59
2022-10-26T18:25:40.796Z,97517.75
2022-10-26T18:28:08.178Z,97525.44
2022-10-26T18:30:34.558Z,97528.63
2022-10-26T18:33:00.922Z,97526.34
2022-10-26T18:35:27.305Z,97529.56
2022-10-26T18:37:54.082Z,97530.75
2022-10-26T18:40:20.758Z,97524.91
2022-10-26T18:42:47.107Z,97534.47
2022-10-26T18:45:13.536Z,97530.19
2022-10-26T18:47:39.906Z,97531.03
2022-10-26T18:50:06.477Z,97532.56
2022-10-26T18:52:32.792Z,97530.09
2022-10-26T18:54:59.113Z,97539.84
2022-10-26T18:57:27.014Z,97546.31
2022-10-26T18:59:54.866Z,97538.59
2022-10-26T19:02:22.884Z,97540.84
2022-10-26T19:04:51.537Z,97542.09
2022-10-26T19:07:17.888Z,97550.63
2022-10-26T19:09:44.203Z,97548.97
2022-10-26T19:12:10.511Z,97556.38
2022-10-26T19:14:36.833Z,97563.00
2022-10-26T19:17:03.660Z,97563.47
2022-10-26T19:19:30.024Z,97565.66
2022-10-26T19:21:56.434Z,97566.22
2022-10-26T19:24:23.331Z,97567.72
2022-10-26T19:26:50.541Z,97571.16
2022-10-26T19:29:17.469Z,97565.16
2022-10-26T19:31:47.447Z,97570.63
2022-10-26T19:34:14.732Z,97576.25
2022-10-26T19:36:44.798Z,97574.56
2022-10-26T19:39:12.303Z,97584.47
2022-10-26T19:41:38.621Z,97582.53
2022-10-26T19:44:04.985Z,97588.81
2022-10-26T19:46:32.756Z,97583.09
2022-10-26T19:49:00.315Z,97594.09
2022-10-26T19:51:27.672Z,97604.25
2022-10-26T19:53:56.762Z,97608.88
2022-10-26T19:56:25.628Z,97604.78
2022-10-26T19:58:51.940Z,97602.50
2022-10-26T20:01:18.754Z,97608.75
2022-10-26T20:03:47.942Z,97618.34
2022-10-26T20:06:15.470Z,97607.47
2022-10-26T20:08:43.010Z,97628.50
2022-10-26T20:11:13.147Z,97625.06
2022-10-26T20:13:42.743Z,97634.47
2022-10-26T20:16:09.388Z,97634.72
2022-10-26T20:18:35.841Z,97638.72
2022-10-26T20:21:06.572Z,97633.56
2022-10-26T20:23:32.913Z,97635.25
2022-10-26T20:26:00.405Z,97640.00
2022-10-26T20:28:26.836Z,97636.91
2022-10-26T20:30:53.142Z,97644.66
2022-10-26T20:33:19.446Z,97639.38
2022-10-26T20:35:45.827Z,97650.25
2022-10-26T20:38:19.557Z,97646.97
2022-10-26T20:40:51.055Z,97655.25
2022-10-26T20:43:18.638Z,97656.41
2022-10-26T20:45:45.158Z,97661.91
2022-10-26T20:48:11.858Z,97660.25
2022-10-26T20:50:39.845Z,97661.75
2022-10-26T20:53:24.073Z,97659.44
2022-10-26T20:55:56.592Z,97661.44
2022-10-26T20:58:28.783Z,97658.47
2022-10-26T21:01:02.228Z,97666.69
2022-10-26T21:03:28.555Z,97667.34
2022-10-26T21:05:56.001Z,97669.97
2022-10-26T21:08:22.334Z,97667.81
2022-10-26T21:10:51.851Z,97668.00
2022-10-26T21:13:18.292Z,97673.13
2022-10-26T21:15:44.844Z,97674.44
2022-10-26T21:18:11.181Z,97674.59
2022-10-26T21:20:37.563Z,97673.78
2022-10-26T21:23:03.887Z,97676.44
2022-10-26T21:25:30.197Z,97678.41
2022-10-26T21:27:57.904Z,97680.69
2022-10-26T21:30:25.030Z,97682.34
2022-10-26T21:32:52.223Z,97685.16
2022-10-26T21:35:18.653Z,97685.63
2022-10-26T21:37:45.236Z,97683.00
2022-10-26T21:40:11.828Z,97681.38
2022-10-26T21:42:38.200Z,97692.22
2022-10-26T21:45:04.755Z,97689.91
2022-10-26T21:47:31.872Z,97693.19
2022-10-26T21:49:58.202Z,97695.34
2022-10-26T21:52:24.694Z,97698.81
2022-10-26T21:54:51.012Z,97694.53
2022-10-26T21:57:17.319Z,97692.22
2022-10-26T21:59:43.708Z,97696.97
2022-10-26T22:02:10.150Z,97700.06
2022-10-26T22:04:37.361Z,97697.47
2022-10-26T22:07:03.696Z,97701.81
2022-10-26T22:09:30.024Z,97699.75
2022-10-26T22:11:56.384Z,97700.53
2022-10-26T22:14:22.786Z,97696.78
2022-10-26T22:16:49.201Z,97703.31
2022-10-26T22:19:15.673Z,97699.03
2022-10-26T22:21:42.059Z,97701.13
2022-10-26T22:24:08.809Z,97706.25
2022-10-26T22:26:35.908Z,97703.44
2022-10-26T22:29:02.482Z,97702.09
2022-10-26T22:34:01.957Z,97700.94
2022-10-26T22:36:31.287Z,97696.19
2022-10-26T22:38:57.650Z,97703.56
2022-10-26T22:41:24.228Z,97702.25
2022-10-26T22:43:50.940Z,97701.41
2022-10-26T22:46:18.748Z,97703.50
2022-10-26T22:48:47.877Z,97712.38
2022-10-26T22:51:15.580Z,97700.81
2022-10-26T22:53:42.366Z,97703.75
2022-10-26T22:56:09.928Z,97702.69
2022-10-26T22:58:36.860Z,97710.38
2022-10-26T23:01:07.476Z,97705.31
2022-10-26T23:03:34.446Z,97702.81
2022-10-26T23:06:01.251Z,97699.63
2022-10-26T23:08:28.043Z,97699.84
2022-10-26T23:10:58.116Z,97703.22
2022-10-26T23:13:24.474Z,97709.81
2022-10-26T23:15:50.783Z,97712.16
2022-10-26T23:18:17.255Z,97718.03
2022-10-26T23:20:43.611Z,97721.81
2022-10-26T23:23:09.935Z,97721.56
2022-10-26T23:25:36.263Z,97734.88
2022-10-26T23:28:02.577Z,97733.63
2022-10-26T23:30:28.924Z,97735.94
2022-10-26T23:32:56.143Z,97736.94
2022-10-26T23:35:23.099Z,97741.69
2022-10-26T23:37:49.752Z,97737.53
2022-10-26T23:40:16.161Z,97744.13
2022-10-26T23:42:42.472Z,97742.84
2022-10-26T23:45:08.973Z,97737.28
2022-10-26T23:47:35.291Z,97742.47
2022-10-26T23:50:01.599Z,97742.56
2022-10-26T23:52:27.916Z,97736.59
2022-10-26T23:54:54.321Z,97728.22
2022-10-26T23:57:20.999Z,97741.97
2022-10-26T23:59:47.317Z,97749.59
